Nearby METAR Reports

 

EGQS - Lossiemouth Raf, United Kingdom
Distance from station: NW 60mi, 97km
Updated: 22/01/2021 12:50
Mostly cloudy
Mostly cloudy
 Wind from W
Wind: W 21 mph , 33 km/h
Temperature: 3°C
Wind Chill: -3°C
Dew Point: 0°C
Humidity: 81%
Barometer: 984 hPa
Clouds: Mostly cloudy
Visibility: 6 miles , 10 km
Cloud details: Few Clouds 488 m
Partly cloudy 975 m
Mostly cloudy 7620 m
2021/01/22 12:50 EGQS 221250Z 28018KT 9999 FEW016CB SCT032 BKN250 03/00 Q0984 TEMPO 4000 SHRASN SCT010 BKN016CB RMK BLU TEMPO GRN